sensor_id;sensor_type;location;lat;lon;timestamp;P1;durP1;ratioP1;P2;durP2;ratioP2
18532;SDS011;9396;51.510;11.934;2022-12-07T00:01:35;7.90;;;6.23;;
18532;SDS011;9396;51.510;11.934;2022-12-07T00:04:03;8.03;;;6.03;;
18532;SDS011;9396;51.510;11.934;2022-12-07T00:06:31;9.33;;;6.50;;
18532;SDS011;9396;51.510;11.934;2022-12-07T00:08:59;8.73;;;6.20;;
18532;SDS011;9396;51.510;11.934;2022-12-07T00:11:26;10.30;;;6.70;;
18532;SDS011;9396;51.510;11.934;2022-12-07T00:13:55;10.20;;;7.33;;
18532;SDS011;9396;51.510;11.934;2022-12-07T00:16:25;8.67;;;6.27;;
18532;SDS011;9396;51.510;11.934;2022-12-07T00:18:53;12.07;;;7.67;;
18532;SDS011;9396;51.510;11.934;2022-12-07T00:21:21;9.77;;;7.20;;
18532;SDS011;9396;51.510;11.934;2022-12-07T00:23:49;10.23;;;7.23;;
18532;SDS011;9396;51.510;11.934;2022-12-07T00:26:18;11.10;;;7.40;;
18532;SDS011;9396;51.510;11.934;2022-12-07T00:28:47;10.00;;;7.37;;
18532;SDS011;9396;51.510;11.934;2022-12-07T00:31:17;10.97;;;8.30;;
18532;SDS011;9396;51.510;11.934;2022-12-07T00:33:46;12.70;;;8.00;;
18532;SDS011;9396;51.510;11.934;2022-12-07T00:36:14;15.67;;;9.20;;
18532;SDS011;9396;51.510;11.934;2022-12-07T00:38:42;12.23;;;7.93;;
18532;SDS011;9396;51.510;11.934;2022-12-07T00:41:09;13.97;;;9.60;;
18532;SDS011;9396;51.510;11.934;2022-12-07T00:43:38;11.83;;;9.17;;
18532;SDS011;9396;51.510;11.934;2022-12-07T00:46:05;12.37;;;8.67;;
18532;SDS011;9396;51.510;11.934;2022-12-07T00:48:33;12.60;;;9.17;;
18532;SDS011;9396;51.510;11.934;2022-12-07T00:51:00;15.10;;;9.50;;
18532;SDS011;9396;51.510;11.934;2022-12-07T00:53:27;13.83;;;9.00;;
18532;SDS011;9396;51.510;11.934;2022-12-07T00:55:53;12.60;;;9.20;;
18532;SDS011;9396;51.510;11.934;2022-12-07T00:58:21;12.50;;;9.03;;
18532;SDS011;9396;51.510;11.934;2022-12-07T01:00:48;14.17;;;10.10;;
18532;SDS011;9396;51.510;11.934;2022-12-07T01:03:15;14.00;;;9.60;;
18532;SDS011;9396;51.510;11.934;2022-12-07T01:05:49;13.77;;;9.43;;
18532;SDS011;9396;51.510;11.934;2022-12-07T01:08:17;14.93;;;10.27;;
18532;SDS011;9396;51.510;11.934;2022-12-07T01:10:44;15.37;;;10.20;;
18532;SDS011;9396;51.510;11.934;2022-12-07T01:13:11;15.73;;;9.53;;
18532;SDS011;9396;51.510;11.934;2022-12-07T01:15:38;16.30;;;10.07;;
18532;SDS011;9396;51.510;11.934;2022-12-07T01:18:05;14.03;;;9.20;;
18532;SDS011;9396;51.510;11.934;2022-12-07T01:20:32;14.50;;;10.10;;
18532;SDS011;9396;51.510;11.934;2022-12-07T01:23:00;18.27;;;11.03;;
18532;SDS011;9396;51.510;11.934;2022-12-07T01:25:27;17.30;;;11.30;;
18532;SDS011;9396;51.510;11.934;2022-12-07T01:27:53;13.83;;;9.67;;
18532;SDS011;9396;51.510;11.934;2022-12-07T01:30:20;15.30;;;9.83;;
18532;SDS011;9396;51.510;11.934;2022-12-07T01:32:46;15.10;;;10.40;;
18532;SDS011;9396;51.510;11.934;2022-12-07T01:35:13;15.97;;;10.33;;
18532;SDS011;9396;51.510;11.934;2022-12-07T01:37:40;16.67;;;9.93;;
18532;SDS011;9396;51.510;11.934;2022-12-07T01:40:09;16.77;;;10.80;;
18532;SDS011;9396;51.510;11.934;2022-12-07T01:42:37;14.00;;;9.57;;
18532;SDS011;9396;51.510;11.934;2022-12-07T01:48:05;15.67;;;9.53;;
18532;SDS011;9396;51.510;11.934;2022-12-07T01:50:35;14.73;;;9.40;;
18532;SDS011;9396;51.510;11.934;2022-12-07T01:53:03;13.93;;;10.00;;
18532;SDS011;9396;51.510;11.934;2022-12-07T01:55:34;14.33;;;10.03;;
18532;SDS011;9396;51.510;11.934;2022-12-07T01:58:04;16.90;;;10.23;;
18532;SDS011;9396;51.510;11.934;2022-12-07T02:00:31;14.37;;;9.37;;
18532;SDS011;9396;51.510;11.934;2022-12-07T02:02:59;15.47;;;10.03;;
18532;SDS011;9396;51.510;11.934;2022-12-07T02:05:31;15.20;;;9.83;;
18532;SDS011;9396;51.510;11.934;2022-12-07T02:07:59;15.33;;;10.17;;
18532;SDS011;9396;51.510;11.934;2022-12-07T02:10:27;16.37;;;10.03;;
18532;SDS011;9396;51.510;11.934;2022-12-07T02:12:57;16.73;;;10.03;;
18532;SDS011;9396;51.510;11.934;2022-12-07T02:15:27;15.13;;;9.40;;
18532;SDS011;9396;51.510;11.934;2022-12-07T02:18:01;14.97;;;9.60;;
18532;SDS011;9396;51.510;11.934;2022-12-07T02:20:34;13.63;;;9.07;;
18532;SDS011;9396;51.510;11.934;2022-12-07T02:26:10;12.83;;;8.47;;
18532;SDS011;9396;51.510;11.934;2022-12-07T02:29:00;15.93;;;8.93;;
18532;SDS011;9396;51.510;11.934;2022-12-07T02:31:38;16.67;;;8.70;;
18532;SDS011;9396;51.510;11.934;2022-12-07T02:34:12;16.10;;;8.53;;
18532;SDS011;9396;51.510;11.934;2022-12-07T02:36:51;13.27;;;8.83;;
18532;SDS011;9396;51.510;11.934;2022-12-07T02:39:23;12.93;;;8.70;;
18532;SDS011;9396;51.510;11.934;2022-12-07T02:41:55;12.20;;;8.33;;
18532;SDS011;9396;51.510;11.934;2022-12-07T02:44:29;13.73;;;8.97;;
18532;SDS011;9396;51.510;11.934;2022-12-07T02:46:58;12.53;;;8.43;;
18532;SDS011;9396;51.510;11.934;2022-12-07T02:49:28;11.97;;;8.80;;
18532;SDS011;9396;51.510;11.934;2022-12-07T02:51:56;15.20;;;8.67;;
18532;SDS011;9396;51.510;11.934;2022-12-07T02:54:22;12.57;;;8.63;;
18532;SDS011;9396;51.510;11.934;2022-12-07T02:56:50;11.77;;;8.47;;
18532;SDS011;9396;51.510;11.934;2022-12-07T02:59:25;12.77;;;8.27;;
18532;SDS011;9396;51.510;11.934;2022-12-07T03:02:03;15.57;;;9.70;;
18532;SDS011;9396;51.510;11.934;2022-12-07T03:04:41;13.70;;;9.50;;
18532;SDS011;9396;51.510;11.934;2022-12-07T03:07:18;13.77;;;8.77;;
18532;SDS011;9396;51.510;11.934;2022-12-07T03:10:02;12.43;;;8.53;;
18532;SDS011;9396;51.510;11.934;2022-12-07T03:12:35;15.43;;;9.13;;
18532;SDS011;9396;51.510;11.934;2022-12-07T03:15:12;11.53;;;8.43;;
18532;SDS011;9396;51.510;11.934;2022-12-07T03:17:42;13.50;;;8.70;;
18532;SDS011;9396;51.510;11.934;2022-12-07T03:20:13;11.90;;;8.17;;
18532;SDS011;9396;51.510;11.934;2022-12-07T03:22:42;15.70;;;9.30;;
18532;SDS011;9396;51.510;11.934;2022-12-07T03:25:13;12.60;;;8.73;;
18532;SDS011;9396;51.510;11.934;2022-12-07T03:27:43;12.97;;;8.73;;
18532;SDS011;9396;51.510;11.934;2022-12-07T03:30:18;14.67;;;9.10;;
18532;SDS011;9396;51.510;11.934;2022-12-07T03:32:47;11.30;;;8.03;;
18532;SDS011;9396;51.510;11.934;2022-12-07T03:35:18;13.03;;;8.87;;
18532;SDS011;9396;51.510;11.934;2022-12-07T03:37:50;14.47;;;9.13;;
18532;SDS011;9396;51.510;11.934;2022-12-07T03:40:22;13.07;;;8.33;;
18532;SDS011;9396;51.510;11.934;2022-12-07T03:42:52;14.50;;;9.57;;
18532;SDS011;9396;51.510;11.934;2022-12-07T03:45:22;14.73;;;9.30;;
18532;SDS011;9396;51.510;11.934;2022-12-07T03:48:00;14.03;;;9.23;;
18532;SDS011;9396;51.510;11.934;2022-12-07T03:50:33;13.60;;;8.73;;
18532;SDS011;9396;51.510;11.934;2022-12-07T03:53:09;15.77;;;8.60;;
18532;SDS011;9396;51.510;11.934;2022-12-07T03:55:41;13.10;;;9.00;;
18532;SDS011;9396;51.510;11.934;2022-12-07T03:58:10;12.57;;;8.57;;
18532;SDS011;9396;51.510;11.934;2022-12-07T04:00:41;16.17;;;9.03;;
18532;SDS011;9396;51.510;11.934;2022-12-07T04:03:09;13.27;;;8.73;;
18532;SDS011;9396;51.510;11.934;2022-12-07T04:05:36;14.07;;;8.40;;
18532;SDS011;9396;51.510;11.934;2022-12-07T04:08:04;12.67;;;7.90;;
18532;SDS011;9396;51.510;11.934;2022-12-07T04:10:31;12.13;;;8.23;;
18532;SDS011;9396;51.510;11.934;2022-12-07T04:12:58;11.67;;;8.10;;
18532;SDS011;9396;51.510;11.934;2022-12-07T04:15:24;11.00;;;7.33;;
18532;SDS011;9396;51.510;11.934;2022-12-07T04:17:52;12.67;;;8.07;;
18532;SDS011;9396;51.510;11.934;2022-12-07T04:20:19;11.40;;;7.60;;
18532;SDS011;9396;51.510;11.934;2022-12-07T04:22:46;10.37;;;7.67;;
18532;SDS011;9396;51.510;11.934;2022-12-07T04:25:13;10.63;;;7.07;;
18532;SDS011;9396;51.510;11.934;2022-12-07T04:27:39;10.80;;;7.60;;
18532;SDS011;9396;51.510;11.934;2022-12-07T04:30:06;11.23;;;6.53;;
18532;SDS011;9396;51.510;11.934;2022-12-07T04:32:34;10.20;;;7.37;;
18532;SDS011;9396;51.510;11.934;2022-12-07T04:35:02;14.53;;;7.57;;
18532;SDS011;9396;51.510;11.934;2022-12-07T04:37:29;8.80;;;6.57;;
18532;SDS011;9396;51.510;11.934;2022-12-07T04:39:56;9.63;;;7.07;;
18532;SDS011;9396;51.510;11.934;2022-12-07T04:42:22;11.93;;;7.23;;
18532;SDS011;9396;51.510;11.934;2022-12-07T04:44:49;10.40;;;6.80;;
18532;SDS011;9396;51.510;11.934;2022-12-07T04:47:16;8.87;;;6.73;;
18532;SDS011;9396;51.510;11.934;2022-12-07T04:49:42;10.60;;;6.47;;
18532;SDS011;9396;51.510;11.934;2022-12-07T04:52:10;10.17;;;6.70;;
18532;SDS011;9396;51.510;11.934;2022-12-07T04:54:37;11.47;;;7.30;;
18532;SDS011;9396;51.510;11.934;2022-12-07T04:57:04;8.47;;;6.37;;
18532;SDS011;9396;51.510;11.934;2022-12-07T04:59:30;10.13;;;7.07;;
18532;SDS011;9396;51.510;11.934;2022-12-07T05:01:57;10.97;;;7.43;;
18532;SDS011;9396;51.510;11.934;2022-12-07T05:04:24;11.20;;;7.60;;
18532;SDS011;9396;51.510;11.934;2022-12-07T05:06:50;14.30;;;8.17;;
18532;SDS011;9396;51.510;11.934;2022-12-07T05:09:18;10.30;;;7.00;;
18532;SDS011;9396;51.510;11.934;2022-12-07T05:11:45;12.40;;;8.00;;
18532;SDS011;9396;51.510;11.934;2022-12-07T05:14:13;10.97;;;7.00;;
18532;SDS011;9396;51.510;11.934;2022-12-07T05:16:42;9.33;;;6.70;;
18532;SDS011;9396;51.510;11.934;2022-12-07T05:19:10;10.83;;;7.53;;
18532;SDS011;9396;51.510;11.934;2022-12-07T05:21:38;12.03;;;7.47;;
18532;SDS011;9396;51.510;11.934;2022-12-07T05:24:05;12.50;;;7.57;;
18532;SDS011;9396;51.510;11.934;2022-12-07T05:26:34;10.93;;;7.40;;
18532;SDS011;9396;51.510;11.934;2022-12-07T05:29:00;13.83;;;7.93;;
18532;SDS011;9396;51.510;11.934;2022-12-07T05:31:27;12.23;;;8.23;;
18532;SDS011;9396;51.510;11.934;2022-12-07T05:33:54;12.57;;;7.80;;
18532;SDS011;9396;51.510;11.934;2022-12-07T05:36:21;11.50;;;7.77;;
18532;SDS011;9396;51.510;11.934;2022-12-07T05:38:48;10.67;;;7.77;;
18532;SDS011;9396;51.510;11.934;2022-12-07T05:41:16;10.87;;;7.50;;
18532;SDS011;9396;51.510;11.934;2022-12-07T05:44:03;10.43;;;7.13;;
18532;SDS011;9396;51.510;11.934;2022-12-07T05:46:30;11.23;;;7.70;;
18532;SDS011;9396;51.510;11.934;2022-12-07T05:48:57;9.70;;;7.30;;
18532;SDS011;9396;51.510;11.934;2022-12-07T05:51:23;12.00;;;7.97;;
18532;SDS011;9396;51.510;11.934;2022-12-07T05:53:50;10.80;;;7.87;;
18532;SDS011;9396;51.510;11.934;2022-12-07T05:56:17;13.77;;;8.00;;
18532;SDS011;9396;51.510;11.934;2022-12-07T05:58:43;12.43;;;8.03;;
18532;SDS011;9396;51.510;11.934;2022-12-07T06:01:28;10.47;;;7.77;;
18532;SDS011;9396;51.510;11.934;2022-12-07T06:03:55;12.63;;;8.30;;
18532;SDS011;9396;51.510;11.934;2022-12-07T06:06:22;12.43;;;8.40;;
18532;SDS011;9396;51.510;11.934;2022-12-07T06:08:48;13.37;;;8.63;;
18532;SDS011;9396;51.510;11.934;2022-12-07T06:11:15;13.87;;;9.03;;
18532;SDS011;9396;51.510;11.934;2022-12-07T06:13:59;16.27;;;9.03;;
18532;SDS011;9396;51.510;11.934;2022-12-07T06:16:25;14.77;;;8.63;;
18532;SDS011;9396;51.510;11.934;2022-12-07T06:18:53;13.67;;;7.77;;
18532;SDS011;9396;51.510;11.934;2022-12-07T06:21:20;11.47;;;8.20;;
18532;SDS011;9396;51.510;11.934;2022-12-07T06:23:47;11.03;;;8.13;;
18532;SDS011;9396;51.510;11.934;2022-12-07T06:26:13;11.83;;;8.33;;
18532;SDS011;9396;51.510;11.934;2022-12-07T06:28:40;13.37;;;9.10;;
18532;SDS011;9396;51.510;11.934;2022-12-07T06:31:07;11.40;;;8.30;;
18532;SDS011;9396;51.510;11.934;2022-12-07T06:33:33;11.43;;;8.17;;
18532;SDS011;9396;51.510;11.934;2022-12-07T06:36:01;15.00;;;9.30;;
18532;SDS011;9396;51.510;11.934;2022-12-07T06:38:28;14.63;;;8.47;;
18532;SDS011;9396;51.510;11.934;2022-12-07T06:40:55;11.83;;;8.93;;
18532;SDS011;9396;51.510;11.934;2022-12-07T06:43:22;13.10;;;9.10;;
18532;SDS011;9396;51.510;11.934;2022-12-07T06:45:48;14.10;;;9.90;;
18532;SDS011;9396;51.510;11.934;2022-12-07T06:48:15;15.47;;;9.53;;
18532;SDS011;9396;51.510;11.934;2022-12-07T06:50:43;15.40;;;10.30;;
18532;SDS011;9396;51.510;11.934;2022-12-07T06:53:11;14.43;;;8.80;;
18532;SDS011;9396;51.510;11.934;2022-12-07T06:55:38;15.17;;;9.30;;
18532;SDS011;9396;51.510;11.934;2022-12-07T06:58:05;15.37;;;9.23;;
18532;SDS011;9396;51.510;11.934;2022-12-07T07:00:31;18.20;;;10.23;;
18532;SDS011;9396;51.510;11.934;2022-12-07T07:02:59;15.87;;;10.63;;
18532;SDS011;9396;51.510;11.934;2022-12-07T07:05:26;16.73;;;10.20;;
18532;SDS011;9396;51.510;11.934;2022-12-07T07:07:53;16.90;;;10.37;;
18532;SDS011;9396;51.510;11.934;2022-12-07T07:10:21;13.77;;;9.37;;
18532;SDS011;9396;51.510;11.934;2022-12-07T07:12:47;15.93;;;9.17;;
18532;SDS011;9396;51.510;11.934;2022-12-07T07:15:14;15.17;;;9.30;;
18532;SDS011;9396;51.510;11.934;2022-12-07T07:17:41;18.47;;;9.47;;
18532;SDS011;9396;51.510;11.934;2022-12-07T07:20:08;14.87;;;8.50;;
18532;SDS011;9396;51.510;11.934;2022-12-07T07:22:35;16.47;;;9.07;;
18532;SDS011;9396;51.510;11.934;2022-12-07T07:25:02;11.90;;;8.43;;
18532;SDS011;9396;51.510;11.934;2022-12-07T07:27:30;11.53;;;8.03;;
18532;SDS011;9396;51.510;11.934;2022-12-07T07:29:57;15.10;;;8.87;;
18532;SDS011;9396;51.510;11.934;2022-12-07T07:32:23;19.50;;;12.43;;
18532;SDS011;9396;51.510;11.934;2022-12-07T07:34:50;14.83;;;9.20;;
18532;SDS011;9396;51.510;11.934;2022-12-07T07:37:17;13.47;;;8.03;;
18532;SDS011;9396;51.510;11.934;2022-12-07T07:39:44;14.87;;;9.37;;
18532;SDS011;9396;51.510;11.934;2022-12-07T07:42:10;13.73;;;9.53;;
18532;SDS011;9396;51.510;11.934;2022-12-07T07:44:39;14.53;;;9.30;;
18532;SDS011;9396;51.510;11.934;2022-12-07T07:47:05;15.77;;;11.13;;
18532;SDS011;9396;51.510;11.934;2022-12-07T07:49:32;17.20;;;9.13;;
18532;SDS011;9396;51.510;11.934;2022-12-07T07:51:58;13.50;;;9.30;;
18532;SDS011;9396;51.510;11.934;2022-12-07T07:54:25;13.33;;;8.47;;
18532;SDS011;9396;51.510;11.934;2022-12-07T07:56:52;17.23;;;8.17;;
18532;SDS011;9396;51.510;11.934;2022-12-07T07:59:18;14.30;;;9.00;;
18532;SDS011;9396;51.510;11.934;2022-12-07T08:01:46;14.57;;;10.30;;
18532;SDS011;9396;51.510;11.934;2022-12-07T08:04:13;14.50;;;9.07;;
18532;SDS011;9396;51.510;11.934;2022-12-07T08:06:40;12.27;;;8.03;;
18532;SDS011;9396;51.510;11.934;2022-12-07T08:09:07;14.43;;;7.93;;
18532;SDS011;9396;51.510;11.934;2022-12-07T08:11:34;10.07;;;6.80;;
18532;SDS011;9396;51.510;11.934;2022-12-07T08:14:01;9.90;;;6.77;;
18532;SDS011;9396;51.510;11.934;2022-12-07T08:16:27;11.87;;;7.47;;
18532;SDS011;9396;51.510;11.934;2022-12-07T08:18:55;10.63;;;7.37;;
18532;SDS011;9396;51.510;11.934;2022-12-07T08:21:22;10.97;;;7.20;;
18532;SDS011;9396;51.510;11.934;2022-12-07T08:23:49;12.73;;;7.50;;
18532;SDS011;9396;51.510;11.934;2022-12-07T08:26:16;9.70;;;6.97;;
18532;SDS011;9396;51.510;11.934;2022-12-07T08:28:43;15.87;;;8.20;;
18532;SDS011;9396;51.510;11.934;2022-12-07T08:31:11;13.30;;;8.10;;
18532;SDS011;9396;51.510;11.934;2022-12-07T08:33:39;14.13;;;8.43;;
18532;SDS011;9396;51.510;11.934;2022-12-07T08:36:08;13.23;;;8.47;;
18532;SDS011;9396;51.510;11.934;2022-12-07T08:38:37;15.47;;;8.97;;
18532;SDS011;9396;51.510;11.934;2022-12-07T08:41:05;16.90;;;9.63;;
18532;SDS011;9396;51.510;11.934;2022-12-07T08:43:33;16.20;;;9.07;;
18532;SDS011;9396;51.510;11.934;2022-12-07T08:46:03;15.73;;;8.80;;
18532;SDS011;9396;51.510;11.934;2022-12-07T08:48:36;18.07;;;9.67;;
18532;SDS011;9396;51.510;11.934;2022-12-07T08:51:05;16.30;;;9.20;;
18532;SDS011;9396;51.510;11.934;2022-12-07T08:53:33;14.27;;;9.13;;
18532;SDS011;9396;51.510;11.934;2022-12-07T08:56:01;15.50;;;9.47;;
18532;SDS011;9396;51.510;11.934;2022-12-07T08:58:28;14.07;;;8.87;;
18532;SDS011;9396;51.510;11.934;2022-12-07T09:00:54;14.93;;;8.40;;
18532;SDS011;9396;51.510;11.934;2022-12-07T09:03:21;10.90;;;6.80;;
18532;SDS011;9396;51.510;11.934;2022-12-07T09:05:48;8.87;;;5.63;;
18532;SDS011;9396;51.510;11.934;2022-12-07T09:08:14;7.00;;;4.17;;
18532;SDS011;9396;51.510;11.934;2022-12-07T09:10:43;8.30;;;4.70;;
18532;SDS011;9396;51.510;11.934;2022-12-07T09:13:10;7.33;;;4.77;;
18532;SDS011;9396;51.510;11.934;2022-12-07T09:15:37;9.87;;;5.83;;
18532;SDS011;9396;51.510;11.934;2022-12-07T09:18:03;10.87;;;5.37;;
18532;SDS011;9396;51.510;11.934;2022-12-07T09:20:30;7.70;;;5.03;;
18532;SDS011;9396;51.510;11.934;2022-12-07T09:22:57;7.97;;;5.70;;
18532;SDS011;9396;51.510;11.934;2022-12-07T09:25:23;10.33;;;5.90;;
18532;SDS011;9396;51.510;11.934;2022-12-07T09:27:56;12.80;;;6.33;;
18532;SDS011;9396;51.510;11.934;2022-12-07T09:30:23;12.43;;;7.33;;
18532;SDS011;9396;51.510;11.934;2022-12-07T09:32:50;10.27;;;6.67;;
18532;SDS011;9396;51.510;11.934;2022-12-07T09:35:18;12.37;;;7.40;;
18532;SDS011;9396;51.510;11.934;2022-12-07T09:37:45;15.53;;;9.00;;
18532;SDS011;9396;51.510;11.934;2022-12-07T09:40:12;13.10;;;8.80;;
18532;SDS011;9396;51.510;11.934;2022-12-07T09:42:41;15.27;;;8.87;;
18532;SDS011;9396;51.510;11.934;2022-12-07T09:45:13;13.20;;;8.43;;
18532;SDS011;9396;51.510;11.934;2022-12-07T09:47:42;17.27;;;9.23;;
18532;SDS011;9396;51.510;11.934;2022-12-07T09:50:12;16.77;;;9.67;;
18532;SDS011;9396;51.510;11.934;2022-12-07T09:52:42;14.83;;;9.10;;
18532;SDS011;9396;51.510;11.934;2022-12-07T09:55:13;17.03;;;8.37;;
18532;SDS011;9396;51.510;11.934;2022-12-07T09:57:42;15.23;;;8.93;;
18532;SDS011;9396;51.510;11.934;2022-12-07T10:00:12;14.90;;;7.90;;
18532;SDS011;9396;51.510;11.934;2022-12-07T10:02:42;13.67;;;8.40;;
18532;SDS011;9396;51.510;11.934;2022-12-07T10:05:12;14.87;;;8.63;;
18532;SDS011;9396;51.510;11.934;2022-12-07T10:07:40;12.13;;;7.27;;
18532;SDS011;9396;51.510;11.934;2022-12-07T10:10:12;12.00;;;7.70;;
18532;SDS011;9396;51.510;11.934;2022-12-07T10:12:52;12.43;;;7.50;;
18532;SDS011;9396;51.510;11.934;2022-12-07T10:15:21;12.47;;;7.23;;
18532;SDS011;9396;51.510;11.934;2022-12-07T10:17:48;10.57;;;7.43;;
18532;SDS011;9396;51.510;11.934;2022-12-07T10:20:18;13.10;;;7.20;;
18532;SDS011;9396;51.510;11.934;2022-12-07T10:25:31;12.90;;;7.83;;
18532;SDS011;9396;51.510;11.934;2022-12-07T10:28:03;14.17;;;7.77;;
18532;SDS011;9396;51.510;11.934;2022-12-07T10:30:53;9.83;;;6.50;;
18532;SDS011;9396;51.510;11.934;2022-12-07T10:33:31;11.30;;;6.60;;
18532;SDS011;9396;51.510;11.934;2022-12-07T10:36:00;10.43;;;6.07;;
18532;SDS011;9396;51.510;11.934;2022-12-07T10:38:44;7.97;;;5.63;;
18532;SDS011;9396;51.510;11.934;2022-12-07T10:41:12;8.40;;;5.40;;
18532;SDS011;9396;51.510;11.934;2022-12-07T10:43:45;9.93;;;5.43;;
18532;SDS011;9396;51.510;11.934;2022-12-07T10:46:35;13.30;;;6.20;;
18532;SDS011;9396;51.510;11.934;2022-12-07T10:52:25;8.57;;;5.27;;
18532;SDS011;9396;51.510;11.934;2022-12-07T10:55:03;11.63;;;4.60;;
18532;SDS011;9396;51.510;11.934;2022-12-07T10:57:44;6.27;;;4.03;;
18532;SDS011;9396;51.510;11.934;2022-12-07T11:00:20;5.73;;;3.60;;
18532;SDS011;9396;51.510;11.934;2022-12-07T11:03:06;8.83;;;4.10;;
18532;SDS011;9396;51.510;11.934;2022-12-07T11:05:45;7.57;;;4.10;;
18532;SDS011;9396;51.510;11.934;2022-12-07T11:08:21;6.67;;;4.50;;
18532;SDS011;9396;51.510;11.934;2022-12-07T11:10:56;9.60;;;5.40;;
18532;SDS011;9396;51.510;11.934;2022-12-07T11:13:28;9.70;;;5.17;;
18532;SDS011;9396;51.510;11.934;2022-12-07T11:16:03;10.33;;;5.00;;
18532;SDS011;9396;51.510;11.934;2022-12-07T11:18:45;8.53;;;5.17;;
18532;SDS011;9396;51.510;11.934;2022-12-07T11:21:20;8.07;;;4.40;;
18532;SDS011;9396;51.510;11.934;2022-12-07T11:23:53;6.80;;;4.27;;
18532;SDS011;9396;51.510;11.934;2022-12-07T11:26:37;8.40;;;5.33;;
18532;SDS011;9396;51.510;11.934;2022-12-07T11:29:24;8.37;;;4.80;;
18532;SDS011;9396;51.510;11.934;2022-12-07T11:32:04;8.77;;;4.13;;
18532;SDS011;9396;51.510;11.934;2022-12-07T11:34:42;5.40;;;4.17;;
18532;SDS011;9396;51.510;11.934;2022-12-07T11:37:19;5.60;;;4.10;;
18532;SDS011;9396;51.510;11.934;2022-12-07T11:39:51;6.20;;;3.83;;
18532;SDS011;9396;51.510;11.934;2022-12-07T11:42:22;5.17;;;3.93;;
18532;SDS011;9396;51.510;11.934;2022-12-07T11:44:52;6.23;;;4.13;;
18532;SDS011;9396;51.510;11.934;2022-12-07T11:47:25;6.00;;;3.70;;
18532;SDS011;9396;51.510;11.934;2022-12-07T11:49:58;4.90;;;3.40;;
18532;SDS011;9396;51.510;11.934;2022-12-07T11:52:45;5.17;;;3.60;;
18532;SDS011;9396;51.510;11.934;2022-12-07T11:55:18;6.80;;;3.53;;
18532;SDS011;9396;51.510;11.934;2022-12-07T11:57:49;6.97;;;3.67;;
18532;SDS011;9396;51.510;11.934;2022-12-07T12:00:22;5.17;;;3.17;;
18532;SDS011;9396;51.510;11.934;2022-12-07T12:02:51;5.10;;;3.07;;
18532;SDS011;9396;51.510;11.934;2022-12-07T12:05:25;4.33;;;2.57;;
18532;SDS011;9396;51.510;11.934;2022-12-07T12:07:54;8.23;;;2.70;;
18532;SDS011;9396;51.510;11.934;2022-12-07T12:10:30;6.10;;;3.23;;
18532;SDS011;9396;51.510;11.934;2022-12-07T12:13:12;5.13;;;2.43;;
18532;SDS011;9396;51.510;11.934;2022-12-07T12:16:02;4.17;;;2.50;;
18532;SDS011;9396;51.510;11.934;2022-12-07T12:21:31;4.53;;;2.30;;
18532;SDS011;9396;51.510;11.934;2022-12-07T12:24:00;4.50;;;2.47;;
18532;SDS011;9396;51.510;11.934;2022-12-07T12:26:32;2.73;;;1.70;;
18532;SDS011;9396;51.510;11.934;2022-12-07T12:29:02;2.07;;;1.77;;
18532;SDS011;9396;51.510;11.934;2022-12-07T12:31:32;4.00;;;1.90;;
18532;SDS011;9396;51.510;11.934;2022-12-07T12:34:03;2.23;;;1.67;;
18532;SDS011;9396;51.510;11.934;2022-12-07T12:36:45;2.63;;;1.60;;
18532;SDS011;9396;51.510;11.934;2022-12-07T12:39:13;3.87;;;1.73;;
18532;SDS011;9396;51.510;11.934;2022-12-07T12:41:51;3.43;;;2.03;;
18532;SDS011;9396;51.510;11.934;2022-12-07T12:44:39;2.87;;;1.60;;
18532;SDS011;9396;51.510;11.934;2022-12-07T12:47:40;3.93;;;1.90;;
18532;SDS011;9396;51.510;11.934;2022-12-07T12:50:29;4.67;;;2.00;;
18532;SDS011;9396;51.510;11.934;2022-12-07T12:53:02;3.17;;;1.80;;
18532;SDS011;9396;51.510;11.934;2022-12-07T12:58:47;3.00;;;1.67;;
18532;SDS011;9396;51.510;11.934;2022-12-07T13:10:21;4.67;;;1.80;;
18532;SDS011;9396;51.510;11.934;2022-12-07T13:12:56;2.63;;;1.60;;
18532;SDS011;9396;51.510;11.934;2022-12-07T13:15:36;4.43;;;2.13;;
18532;SDS011;9396;51.510;11.934;2022-12-07T13:18:04;2.27;;;1.70;;
18532;SDS011;9396;51.510;11.934;2022-12-07T13:20:51;2.10;;;1.40;;
18532;SDS011;9396;51.510;11.934;2022-12-07T13:23:20;4.30;;;1.60;;
18532;SDS011;9396;51.510;11.934;2022-12-07T13:25:53;3.00;;;1.80;;
18532;SDS011;9396;51.510;11.934;2022-12-07T13:28:26;4.83;;;2.23;;
18532;SDS011;9396;51.510;11.934;2022-12-07T13:31:09;4.57;;;1.87;;
18532;SDS011;9396;51.510;11.934;2022-12-07T13:33:42;5.50;;;1.93;;
18532;SDS011;9396;51.510;11.934;2022-12-07T13:36:11;2.60;;;2.10;;
18532;SDS011;9396;51.510;11.934;2022-12-07T13:38:48;3.00;;;2.30;;
18532;SDS011;9396;51.510;11.934;2022-12-07T13:41:18;4.87;;;2.27;;
18532;SDS011;9396;51.510;11.934;2022-12-07T13:43:48;4.07;;;2.33;;
18532;SDS011;9396;51.510;11.934;2022-12-07T13:46:18;4.47;;;2.30;;
18532;SDS011;9396;51.510;11.934;2022-12-07T13:48:50;3.03;;;2.03;;
18532;SDS011;9396;51.510;11.934;2022-12-07T13:51:18;6.03;;;2.50;;
18532;SDS011;9396;51.510;11.934;2022-12-07T13:53:48;4.13;;;1.80;;
18532;SDS011;9396;51.510;11.934;2022-12-07T13:56:15;3.40;;;2.13;;
18532;SDS011;9396;51.510;11.934;2022-12-07T13:58:44;4.07;;;2.00;;
18532;SDS011;9396;51.510;11.934;2022-12-07T14:01:10;2.83;;;1.53;;
18532;SDS011;9396;51.510;11.934;2022-12-07T14:03:39;3.07;;;1.67;;
18532;SDS011;9396;51.510;11.934;2022-12-07T14:06:21;2.80;;;1.60;;
18532;SDS011;9396;51.510;11.934;2022-12-07T14:09:05;4.60;;;1.90;;
18532;SDS011;9396;51.510;11.934;2022-12-07T14:11:32;3.33;;;1.80;;
18532;SDS011;9396;51.510;11.934;2022-12-07T14:14:01;3.00;;;1.87;;
18532;SDS011;9396;51.510;11.934;2022-12-07T14:16:29;3.97;;;1.87;;
18532;SDS011;9396;51.510;11.934;2022-12-07T14:18:58;2.30;;;1.77;;
18532;SDS011;9396;51.510;11.934;2022-12-07T14:21:26;2.30;;;1.73;;
18532;SDS011;9396;51.510;11.934;2022-12-07T14:24:04;3.07;;;1.80;;
18532;SDS011;9396;51.510;11.934;2022-12-07T14:26:36;3.40;;;1.77;;
18532;SDS011;9396;51.510;11.934;2022-12-07T14:29:20;4.33;;;2.10;;
18532;SDS011;9396;51.510;11.934;2022-12-07T14:31:48;2.13;;;1.77;;
18532;SDS011;9396;51.510;11.934;2022-12-07T14:34:15;3.40;;;1.97;;
18532;SDS011;9396;51.510;11.934;2022-12-07T14:36:41;5.47;;;1.90;;
18532;SDS011;9396;51.510;11.934;2022-12-07T14:39:08;5.30;;;2.10;;
18532;SDS011;9396;51.510;11.934;2022-12-07T14:41:35;7.43;;;2.83;;
18532;SDS011;9396;51.510;11.934;2022-12-07T14:44:17;4.30;;;1.93;;
18532;SDS011;9396;51.510;11.934;2022-12-07T14:46:46;3.10;;;1.80;;
18532;SDS011;9396;51.510;11.934;2022-12-07T14:49:14;3.37;;;2.20;;
18532;SDS011;9396;51.510;11.934;2022-12-07T14:51:40;5.50;;;2.40;;
18532;SDS011;9396;51.510;11.934;2022-12-07T14:54:11;2.33;;;1.83;;
18532;SDS011;9396;51.510;11.934;2022-12-07T14:56:42;4.47;;;2.60;;
18532;SDS011;9396;51.510;11.934;2022-12-07T14:59:09;9.77;;;2.33;;
18532;SDS011;9396;51.510;11.934;2022-12-07T15:01:36;5.77;;;2.33;;
18532;SDS011;9396;51.510;11.934;2022-12-07T15:04:05;3.60;;;1.93;;
18532;SDS011;9396;51.510;11.934;2022-12-07T15:06:32;3.60;;;1.87;;
18532;SDS011;9396;51.510;11.934;2022-12-07T15:08:59;4.63;;;2.20;;
18532;SDS011;9396;51.510;11.934;2022-12-07T15:11:25;3.17;;;2.00;;
18532;SDS011;9396;51.510;11.934;2022-12-07T15:13:52;3.77;;;2.03;;
18532;SDS011;9396;51.510;11.934;2022-12-07T15:16:34;3.83;;;2.70;;
18532;SDS011;9396;51.510;11.934;2022-12-07T15:19:02;5.10;;;2.67;;
18532;SDS011;9396;51.510;11.934;2022-12-07T15:21:30;3.50;;;2.57;;
18532;SDS011;9396;51.510;11.934;2022-12-07T15:23:57;6.27;;;2.30;;